sensor_id;sensor_type;location;lat;lon;timestamp;pressure;altitude;pressure_sealevel;temperature;humidity
13709;BME280;54933;51.908;7.730;2023-05-16T00:00:01;100920.38;;;23.53;68.36
13709;BME280;54933;51.908;7.730;2023-05-16T00:02:30;100923.69;;;23.55;68.08
13709;BME280;54933;51.908;7.730;2023-05-16T00:04:56;100927.44;;;23.54;68.08
13709;BME280;54933;51.908;7.730;2023-05-16T00:07:21;100922.00;;;23.54;68.19
13709;BME280;54933;51.908;7.730;2023-05-16T00:09:46;100920.97;;;23.55;68.21
13709;BME280;54933;51.908;7.730;2023-05-16T00:12:12;100928.28;;;23.55;68.20
13709;BME280;54933;51.908;7.730;2023-05-16T00:14:37;100927.44;;;23.54;68.17
13709;BME280;54933;51.908;7.730;2023-05-16T00:17:03;100929.13;;;23.55;68.19
13709;BME280;54933;51.908;7.730;2023-05-16T00:19:35;100929.13;;;23.55;68.11
13709;BME280;54933;51.908;7.730;2023-05-16T00:22:00;100931.81;;;23.55;68.21
13709;BME280;54933;51.908;7.730;2023-05-16T00:24:26;100935.38;;;23.56;68.22
13709;BME280;54933;51.908;7.730;2023-05-16T00:26:51;100934.53;;;23.55;68.33
13709;BME280;54933;51.908;7.730;2023-05-16T00:29:16;100932.66;;;23.56;68.16
13709;BME280;54933;51.908;7.730;2023-05-16T00:31:42;100937.25;;;23.55;68.27
13709;BME280;54933;51.908;7.730;2023-05-16T00:34:07;100934.53;;;23.55;68.14
13709;BME280;54933;51.908;7.730;2023-05-16T00:36:32;100940.81;;;23.56;68.22
13709;BME280;54933;51.908;7.730;2023-05-16T00:38:59;100936.19;;;23.56;68.07
13709;BME280;54933;51.908;7.730;2023-05-16T00:41:25;100942.44;;;23.57;68.25
13709;BME280;54933;51.908;7.730;2023-05-16T00:43:50;100946.22;;;23.56;68.32
13709;BME280;54933;51.908;7.730;2023-05-16T00:46:16;100944.31;;;23.56;68.22
13709;BME280;54933;51.908;7.730;2023-05-16T00:48:41;100952.47;;;23.56;68.31
13709;BME280;54933;51.908;7.730;2023-05-16T00:51:06;100948.94;;;23.56;68.47
13709;BME280;54933;51.908;7.730;2023-05-16T00:53:34;100947.03;;;23.56;68.17
13709;BME280;54933;51.908;7.730;2023-05-16T00:55:59;100947.03;;;23.56;68.12
13709;BME280;54933;51.908;7.730;2023-05-16T00:58:25;100941.59;;;23.56;68.16
13709;BME280;54933;51.908;7.730;2023-05-16T01:00:50;100941.84;;;23.55;68.20
13709;BME280;54933;51.908;7.730;2023-05-16T01:03:16;100939.97;;;23.55;67.98
13709;BME280;54933;51.908;7.730;2023-05-16T01:05:41;100944.31;;;23.56;68.37
13709;BME280;54933;51.908;7.730;2023-05-16T01:08:06;100946.22;;;23.56;68.13
13709;BME280;54933;51.908;7.730;2023-05-16T01:10:49;100953.28;;;23.57;68.14
13709;BME280;54933;51.908;7.730;2023-05-16T01:13:25;100952.47;;;23.56;68.33
13709;BME280;54933;51.908;7.730;2023-05-16T01:16:15;100960.59;;;23.56;68.08
13709;BME280;54933;51.908;7.730;2023-05-16T01:19:06;100959.78;;;23.56;68.39
13709;BME280;54933;51.908;7.730;2023-05-16T01:21:47;100963.31;;;23.56;68.46
13709;BME280;54933;51.908;7.730;2023-05-16T01:24:26;100962.50;;;23.56;68.33
13709;BME280;54933;51.908;7.730;2023-05-16T01:26:58;100969.81;;;23.55;68.36
13709;BME280;54933;51.908;7.730;2023-05-16T01:29:23;100972.53;;;23.55;68.44
13709;BME280;54933;51.908;7.730;2023-05-16T01:31:49;100977.09;;;23.55;68.34
13709;BME280;54933;51.908;7.730;2023-05-16T01:34:14;100977.94;;;23.55;68.27
13709;BME280;54933;51.908;7.730;2023-05-16T01:37:15;100985.25;;;23.55;68.34
13709;BME280;54933;51.908;7.730;2023-05-16T01:39:44;100990.44;;;23.56;68.29
13709;BME280;54933;51.908;7.730;2023-05-16T01:42:12;100984.22;;;23.56;68.32
13709;BME280;54933;51.908;7.730;2023-05-16T01:44:49;100988.78;;;23.55;68.25
13709;BME280;54933;51.908;7.730;2023-05-16T01:47:18;100992.53;;;23.54;68.29
13709;BME280;54933;51.908;7.730;2023-05-16T01:54:55;100999.66;;;23.55;68.13
13709;BME280;54933;51.908;7.730;2023-05-16T01:57:24;101000.47;;;23.56;68.40
13709;BME280;54933;51.908;7.730;2023-05-16T01:59:50;100995.06;;;23.56;68.33
13709;BME280;54933;51.908;7.730;2023-05-16T02:02:19;101005.91;;;23.56;68.29
13709;BME280;54933;51.908;7.730;2023-05-16T02:04:45;101005.91;;;23.56;68.29
13709;BME280;54933;51.908;7.730;2023-05-16T02:07:11;101005.91;;;23.56;68.14
13709;BME280;54933;51.908;7.730;2023-05-16T02:09:38;101012.13;;;23.56;68.23
13709;BME280;54933;51.908;7.730;2023-05-16T02:12:04;101006.72;;;23.56;68.24
13709;BME280;54933;51.908;7.730;2023-05-16T02:14:29;101015.91;;;23.55;68.16
13709;BME280;54933;51.908;7.730;2023-05-16T02:16:54;101011.34;;;23.56;68.26
13709;BME280;54933;51.908;7.730;2023-05-16T02:19:19;101014.84;;;23.56;68.29
13709;BME280;54933;51.908;7.730;2023-05-16T02:21:45;101023.00;;;23.56;68.28
13709;BME280;54933;51.908;7.730;2023-05-16T02:24:10;101020.28;;;23.56;68.20
13709;BME280;54933;51.908;7.730;2023-05-16T02:26:35;101016.75;;;23.56;68.30
13709;BME280;54933;51.908;7.730;2023-05-16T02:29:01;101021.34;;;23.55;68.01
13709;BME280;54933;51.908;7.730;2023-05-16T02:31:28;101022.19;;;23.56;68.08
13709;BME280;54933;51.908;7.730;2023-05-16T02:33:53;101023.84;;;23.57;68.23
13709;BME280;54933;51.908;7.730;2023-05-16T02:36:19;101020.50;;;23.55;68.24
13709;BME280;54933;51.908;7.730;2023-05-16T02:38:45;101023.44;;;23.53;67.95
13709;BME280;54933;51.908;7.730;2023-05-16T02:41:10;101027.22;;;23.52;68.00
13709;BME280;54933;51.908;7.730;2023-05-16T02:43:35;101034.75;;;23.50;68.06
13709;BME280;54933;51.908;7.730;2023-05-16T02:46:03;101036.41;;;23.51;67.79
13709;BME280;54933;51.908;7.730;2023-05-16T02:48:29;101027.69;;;23.49;68.17
13709;BME280;54933;51.908;7.730;2023-05-16T02:50:54;101036.63;;;23.50;67.97
13709;BME280;54933;51.908;7.730;2023-05-16T02:53:20;101050.19;;;23.50;67.83
13709;BME280;54933;51.908;7.730;2023-05-16T02:55:45;101050.19;;;23.50;68.03
13709;BME280;54933;51.908;7.730;2023-05-16T02:58:10;101047.72;;;23.48;68.28
13709;BME280;54933;51.908;7.730;2023-05-16T03:00:36;101053.97;;;23.49;68.28
13709;BME280;54933;51.908;7.730;2023-05-16T03:03:01;101051.50;;;23.47;68.21
13709;BME280;54933;51.908;7.730;2023-05-16T03:05:26;101063.16;;;23.48;68.20
13709;BME280;54933;51.908;7.730;2023-05-16T03:07:51;101062.94;;;23.49;68.59
13709;BME280;54933;51.908;7.730;2023-05-16T03:10:17;101065.66;;;23.49;67.98
13709;BME280;54933;51.908;7.730;2023-05-16T03:12:42;101070.25;;;23.49;68.31
13709;BME280;54933;51.908;7.730;2023-05-16T03:15:08;101070.25;;;23.49;68.29
13709;BME280;54933;51.908;7.730;2023-05-16T03:17:33;101081.94;;;23.49;68.44
13709;BME280;54933;51.908;7.730;2023-05-16T03:19:59;101076.50;;;23.49;68.46
13709;BME280;54933;51.908;7.730;2023-05-16T03:22:24;101078.16;;;23.50;68.34
13709;BME280;54933;51.908;7.730;2023-05-16T03:24:49;101084.66;;;23.49;68.59
13709;BME280;54933;51.908;7.730;2023-05-16T03:27:15;101090.66;;;23.51;68.59
13709;BME280;54933;51.908;7.730;2023-05-16T03:29:40;101089.00;;;23.50;68.57
13709;BME280;54933;51.908;7.730;2023-05-16T03:32:05;101091.72;;;23.50;68.46
13709;BME280;54933;51.908;7.730;2023-05-16T03:34:30;101095.28;;;23.51;68.35
13709;BME280;54933;51.908;7.730;2023-05-16T03:36:56;101102.34;;;23.52;68.44
13709;BME280;54933;51.908;7.730;2023-05-16T03:39:21;101099.88;;;23.50;68.41
13709;BME280;54933;51.908;7.730;2023-05-16T03:41:46;101098.78;;;23.51;68.49
13709;BME280;54933;51.908;7.730;2023-05-16T03:44:12;101106.94;;;23.51;68.47
13709;BME280;54933;51.908;7.730;2023-05-16T03:46:37;101105.28;;;23.50;68.67
13709;BME280;54933;51.908;7.730;2023-05-16T03:49:02;101110.72;;;23.50;68.46
13709;BME280;54933;51.908;7.730;2023-05-16T03:51:28;101113.19;;;23.52;68.67
13709;BME280;54933;51.908;7.730;2023-05-16T03:53:54;101114.03;;;23.52;68.27
13709;BME280;54933;51.908;7.730;2023-05-16T03:56:20;101121.34;;;23.52;68.74
13709;BME280;54933;51.908;7.730;2023-05-16T03:58:46;101119.47;;;23.52;68.72
13709;BME280;54933;51.908;7.730;2023-05-16T04:01:11;101121.09;;;23.53;68.51
13709;BME280;54933;51.908;7.730;2023-05-16T04:03:36;101131.97;;;23.53;68.46
13709;BME280;54933;51.908;7.730;2023-05-16T04:06:02;101130.91;;;23.54;68.65
13709;BME280;54933;51.908;7.730;2023-05-16T04:08:28;101133.84;;;23.53;68.61
13709;BME280;54933;51.908;7.730;2023-05-16T04:10:53;101137.38;;;23.53;68.48
13709;BME280;54933;51.908;7.730;2023-05-16T04:13:19;101137.38;;;23.53;68.61
13709;BME280;54933;51.908;7.730;2023-05-16T04:15:44;101144.47;;;23.54;68.17
13709;BME280;54933;51.908;7.730;2023-05-16T04:18:09;101140.72;;;23.55;68.51
13709;BME280;54933;51.908;7.730;2023-05-16T04:20:35;101144.47;;;23.54;68.64
13709;BME280;54933;51.908;7.730;2023-05-16T04:23:01;101138.00;;;23.55;68.59
13709;BME280;54933;51.908;7.730;2023-05-16T04:25:26;101148.84;;;23.55;68.45
13709;BME280;54933;51.908;7.730;2023-05-16T04:27:51;101151.56;;;23.55;68.35
13709;BME280;54933;51.908;7.730;2023-05-16T04:30:17;101157.44;;;23.52;68.48
13709;BME280;54933;51.908;7.730;2023-05-16T04:32:43;101157.66;;;23.51;68.42
13709;BME280;54933;51.908;7.730;2023-05-16T04:35:08;101166.03;;;23.49;68.24
13709;BME280;54933;51.908;7.730;2023-05-16T04:37:33;101164.34;;;23.48;68.26
13709;BME280;54933;51.908;7.730;2023-05-16T04:40:00;101170.00;;;23.47;68.30
13709;BME280;54933;51.908;7.730;2023-05-16T04:42:25;101174.59;;;23.46;68.41
13709;BME280;54933;51.908;7.730;2023-05-16T04:44:50;101177.31;;;23.46;68.51
13709;BME280;54933;51.908;7.730;2023-05-16T04:47:16;101177.53;;;23.45;68.38
13709;BME280;54933;51.908;7.730;2023-05-16T04:49:42;101183.78;;;23.45;68.46
13709;BME280;54933;51.908;7.730;2023-05-16T04:52:07;101187.56;;;23.44;68.08
13709;BME280;54933;51.908;7.730;2023-05-16T04:54:33;101185.88;;;23.43;67.75
13709;BME280;54933;51.908;7.730;2023-05-16T04:56:58;101192.38;;;23.42;67.35
13709;BME280;54933;51.908;7.730;2023-05-16T04:59:23;101191.53;;;23.42;67.25
13709;BME280;54933;51.908;7.730;2023-05-16T05:01:49;101196.13;;;23.41;67.12
13709;BME280;54933;51.908;7.730;2023-05-16T05:04:14;101190.69;;;23.41;67.14
13709;BME280;54933;51.908;7.730;2023-05-16T05:06:40;101198.25;;;23.39;66.75
13709;BME280;54933;51.908;7.730;2023-05-16T05:09:05;101197.63;;;23.37;66.59
13709;BME280;54933;51.908;7.730;2023-05-16T05:11:31;101197.84;;;23.36;66.37
13709;BME280;54933;51.908;7.730;2023-05-16T05:13:56;101192.66;;;23.34;66.48
13709;BME280;54933;51.908;7.730;2023-05-16T05:16:21;101198.09;;;23.34;66.48
13709;BME280;54933;51.908;7.730;2023-05-16T05:18:47;101190.97;;;23.33;66.45
13709;BME280;54933;51.908;7.730;2023-05-16T05:21:12;101194.75;;;23.32;66.42
13709;BME280;54933;51.908;7.730;2023-05-16T05:23:37;101216.31;;;21.69;64.09
13709;BME280;54933;51.908;7.730;2023-05-16T05:26:03;101230.09;;;20.55;61.01
13709;BME280;54933;51.908;7.730;2023-05-16T05:28:28;101239.91;;;20.69;59.99
13709;BME280;54933;51.908;7.730;2023-05-16T05:30:53;101233.81;;;21.46;59.70
13709;BME280;54933;51.908;7.730;2023-05-16T05:33:18;101244.38;;;22.07;59.90
13709;BME280;54933;51.908;7.730;2023-05-16T05:35:44;101239.91;;;22.38;60.51
13709;BME280;54933;51.908;7.730;2023-05-16T05:38:09;101237.16;;;22.58;60.58
13709;BME280;54933;51.908;7.730;2023-05-16T05:40:35;101234.38;;;22.71;60.72
13709;BME280;54933;51.908;7.730;2023-05-16T05:43:00;101237.41;;;22.81;61.25
13709;BME280;54933;51.908;7.730;2023-05-16T05:45:25;101242.56;;;22.89;61.30
13709;BME280;54933;51.908;7.730;2023-05-16T05:47:50;101246.09;;;22.96;61.37
13709;BME280;54933;51.908;7.730;2023-05-16T05:50:16;101240.84;;;23.01;61.75
13709;BME280;54933;51.908;7.730;2023-05-16T05:52:41;101251.03;;;23.06;61.98
13709;BME280;54933;51.908;7.730;2023-05-16T05:55:07;101248.72;;;23.09;62.01
13709;BME280;54933;51.908;7.730;2023-05-16T05:57:32;101252.88;;;23.12;62.37
13709;BME280;54933;51.908;7.730;2023-05-16T05:59:57;101250.53;;;23.15;62.58
13709;BME280;54933;51.908;7.730;2023-05-16T06:02:22;101253.88;;;23.17;62.45
13709;BME280;54933;51.908;7.730;2023-05-16T06:04:48;101257.19;;;23.19;62.92
13709;BME280;54933;51.908;7.730;2023-05-16T06:07:13;101255.91;;;23.22;62.91
13709;BME280;54933;51.908;7.730;2023-05-16T06:09:40;101261.16;;;23.23;63.21
13709;BME280;54933;51.908;7.730;2023-05-16T06:12:06;101252.78;;;23.25;63.37
13709;BME280;54933;51.908;7.730;2023-05-16T06:14:32;101261.22;;;23.10;63.32
13709;BME280;54933;51.908;7.730;2023-05-16T06:16:57;101267.78;;;22.45;60.53
13709;BME280;54933;51.908;7.730;2023-05-16T06:19:22;101267.66;;;22.78;59.89
13709;BME280;54933;51.908;7.730;2023-05-16T06:21:48;101270.91;;;22.93;60.54
13709;BME280;54933;51.908;7.730;2023-05-16T06:24:13;101266.31;;;23.00;61.11
13709;BME280;54933;51.908;7.730;2023-05-16T06:26:39;101267.06;;;23.07;61.27
13709;BME280;54933;51.908;7.730;2023-05-16T06:29:04;101264.13;;;23.09;61.77
13709;BME280;54933;51.908;7.730;2023-05-16T06:31:30;101269.16;;;23.12;61.68
13709;BME280;54933;51.908;7.730;2023-05-16T06:33:55;101268.94;;;23.13;61.91
13709;BME280;54933;51.908;7.730;2023-05-16T06:36:21;101269.50;;;23.15;62.26
13709;BME280;54933;51.908;7.730;2023-05-16T06:38:46;101270.34;;;23.16;62.33
13709;BME280;54933;51.908;7.730;2023-05-16T06:41:11;101277.47;;;23.17;62.54
13709;BME280;54933;51.908;7.730;2023-05-16T06:43:36;101279.94;;;23.18;62.71
13709;BME280;54933;51.908;7.730;2023-05-16T06:46:02;101279.94;;;23.18;63.03
13709;BME280;54933;51.908;7.730;2023-05-16T06:48:28;101283.25;;;23.20;63.32
13709;BME280;54933;51.908;7.730;2023-05-16T06:50:53;101278.66;;;23.21;63.21
13709;BME280;54933;51.908;7.730;2023-05-16T06:53:18;101271.38;;;23.21;63.58
13709;BME280;54933;51.908;7.730;2023-05-16T06:55:44;101277.41;;;23.23;63.55
13709;BME280;54933;51.908;7.730;2023-05-16T06:58:09;101274.69;;;23.23;63.80
13709;BME280;54933;51.908;7.730;2023-05-16T07:00:35;101275.28;;;23.25;63.93
13709;BME280;54933;51.908;7.730;2023-05-16T07:03:00;101280.72;;;23.25;64.01
13709;BME280;54933;51.908;7.730;2023-05-16T07:05:26;101278.00;;;23.25;64.07
13709;BME280;54933;51.908;7.730;2023-05-16T07:07:51;101277.00;;;23.26;64.31
13709;BME280;54933;51.908;7.730;2023-05-16T07:10:16;101283.22;;;23.27;64.26
13709;BME280;54933;51.908;7.730;2023-05-16T07:12:41;101281.38;;;23.27;64.52
13709;BME280;54933;51.908;7.730;2023-05-16T07:15:07;101296.56;;;23.28;64.48
13709;BME280;54933;51.908;7.730;2023-05-16T07:17:33;101289.28;;;23.29;64.72
13709;BME280;54933;51.908;7.730;2023-05-16T07:19:58;101291.16;;;23.28;65.05
13709;BME280;54933;51.908;7.730;2023-05-16T07:22:24;101287.41;;;23.29;64.93
13709;BME280;54933;51.908;7.730;2023-05-16T07:24:49;101294.47;;;23.30;64.94
13709;BME280;54933;51.908;7.730;2023-05-16T07:27:17;101291.75;;;23.30;65.09
13709;BME280;54933;51.908;7.730;2023-05-16T07:29:42;101298.88;;;23.31;65.13
13709;BME280;54933;51.908;7.730;2023-05-16T07:32:07;101298.88;;;23.31;65.18
13709;BME280;54933;51.908;7.730;2023-05-16T07:34:32;101295.09;;;23.32;65.17
13709;BME280;54933;51.908;7.730;2023-05-16T07:36:58;101296.16;;;23.31;65.24
13709;BME280;54933;51.908;7.730;2023-05-16T07:39:23;101295.94;;;23.33;65.38
13709;BME280;54933;51.908;7.730;2023-05-16T07:41:48;101298.44;;;23.34;65.22
13709;BME280;54933;51.908;7.730;2023-05-16T07:44:14;101292.16;;;23.34;65.17
13709;BME280;54933;51.908;7.730;2023-05-16T07:46:39;101301.13;;;23.34;65.05
13709;BME280;54933;51.908;7.730;2023-05-16T07:49:04;101295.72;;;23.34;65.46
13709;BME280;54933;51.908;7.730;2023-05-16T07:51:30;101299.25;;;23.35;65.52
13709;BME280;54933;51.908;7.730;2023-05-16T07:53:55;101297.38;;;23.35;65.48
13709;BME280;54933;51.908;7.730;2023-05-16T07:56:21;101300.06;;;23.35;65.51
13709;BME280;54933;51.908;7.730;2023-05-16T07:58:47;101307.19;;;23.36;65.50
13709;BME280;54933;51.908;7.730;2023-05-16T08:01:13;101304.47;;;23.36;65.45
13709;BME280;54933;51.908;7.730;2023-05-16T08:03:38;101311.53;;;23.37;65.66
13709;BME280;54933;51.908;7.730;2023-05-16T08:06:03;101313.19;;;23.38;65.55
13709;BME280;54933;51.908;7.730;2023-05-16T08:08:29;101310.72;;;23.37;65.81
13709;BME280;54933;51.908;7.730;2023-05-16T08:10:55;101314.25;;;23.37;65.64
13709;BME280;54933;51.908;7.730;2023-05-16T08:13:20;101313.19;;;23.38;65.71
13709;BME280;54933;51.908;7.730;2023-05-16T08:15:45;101317.59;;;23.39;65.89
13709;BME280;54933;51.908;7.730;2023-05-16T08:18:12;101320.31;;;23.39;65.74
13709;BME280;54933;51.908;7.730;2023-05-16T08:20:39;101309.44;;;23.39;65.69
13709;BME280;54933;51.908;7.730;2023-05-16T08:23:05;101305.69;;;23.40;65.61
13709;BME280;54933;51.908;7.730;2023-05-16T08:25:31;101305.69;;;23.40;65.97
13709;BME280;54933;51.908;7.730;2023-05-16T08:27:56;101308.38;;;23.40;65.73
13709;BME280;54933;51.908;7.730;2023-05-16T08:30:22;101311.09;;;23.40;65.86
13709;BME280;54933;51.908;7.730;2023-05-16T08:32:47;101311.09;;;23.40;65.89
13709;BME280;54933;51.908;7.730;2023-05-16T08:35:13;101307.31;;;23.41;65.84
13709;BME280;54933;51.908;7.730;2023-05-16T08:37:38;101302.75;;;23.42;66.11
13709;BME280;54933;51.908;7.730;2023-05-16T08:40:05;101313.59;;;23.42;65.90
13709;BME280;54933;51.908;7.730;2023-05-16T08:42:32;101303.59;;;23.42;66.16
13709;BME280;54933;51.908;7.730;2023-05-16T08:44:58;101307.13;;;23.43;65.94
13709;BME280;54933;51.908;7.730;2023-05-16T08:47:23;101307.13;;;23.43;65.94
13709;BME280;54933;51.908;7.730;2023-05-16T08:49:51;101310.66;;;23.43;65.89
13709;BME280;54933;51.908;7.730;2023-05-16T08:52:19;101317.16;;;23.42;66.03
13709;BME280;54933;51.908;7.730;2023-05-16T08:54:45;101316.09;;;23.43;66.01
13709;BME280;54933;51.908;7.730;2023-05-16T08:57:13;101305.22;;;23.43;66.18
13709;BME280;54933;51.908;7.730;2023-05-16T08:59:39;101310.66;;;23.43;66.29
13709;BME280;54933;51.908;7.730;2023-05-16T09:02:05;101306.91;;;23.44;66.02
13709;BME280;54933;51.908;7.730;2023-05-16T09:04:30;101298.78;;;23.44;65.99
13709;BME280;54933;51.908;7.730;2023-05-16T09:06:56;101306.91;;;23.44;65.97
13709;BME280;54933;51.908;7.730;2023-05-16T09:09:21;101315.06;;;23.44;66.28
13709;BME280;54933;51.908;7.730;2023-05-16T09:11:46;101312.34;;;23.44;66.14
13709;BME280;54933;51.908;7.730;2023-05-16T09:14:11;101322.13;;;23.45;66.19
13709;BME280;54933;51.908;7.730;2023-05-16T09:16:38;101311.50;;;23.44;65.99
13709;BME280;54933;51.908;7.730;2023-05-16T09:19:04;101313.16;;;23.45;66.05
13709;BME280;54933;51.908;7.730;2023-05-16T09:21:31;101314.00;;;23.45;66.02
13709;BME280;54933;51.908;7.730;2023-05-16T09:24:07;101319.41;;;23.45;66.31
13709;BME280;54933;51.908;7.730;2023-05-16T09:26:35;101305.84;;;23.45;66.28
13709;BME280;54933;51.908;7.730;2023-05-16T09:29:01;101309.41;;;23.46;66.36
13709;BME280;54933;51.908;7.730;2023-05-16T09:31:27;101314.84;;;23.46;66.32
13709;BME280;54933;51.908;7.730;2023-05-16T09:34:03;101308.84;;;23.37;64.33
13709;BME280;54933;51.908;7.730;2023-05-16T09:36:31;101307.31;;;23.41;64.70
13709;BME280;54933;51.908;7.730;2023-05-16T09:38:56;101309.00;;;23.42;64.96
13709;BME280;54933;51.908;7.730;2023-05-16T09:41:22;101299.81;;;23.43;64.99
13709;BME280;54933;51.908;7.730;2023-05-16T09:43:47;101305.22;;;23.43;65.08
13709;BME280;54933;51.908;7.730;2023-05-16T09:46:13;101299.19;;;23.41;65.03
13709;BME280;54933;51.908;7.730;2023-05-16T09:48:46;101294.84;;;23.40;65.00
13709;BME280;54933;51.908;7.730;2023-05-16T09:51:12;101304.03;;;23.39;64.88
13709;BME280;54933;51.908;7.730;2023-05-16T09:53:38;101302.34;;;23.38;64.86
13709;BME280;54933;51.908;7.730;2023-05-16T09:56:06;101296.91;;;23.38;64.68
13709;BME280;54933;51.908;7.730;2023-05-16T09:58:34;101304.25;;;23.38;64.98
13709;BME280;54933;51.908;7.730;2023-05-16T10:01:00;101289.84;;;23.37;64.86
13709;BME280;54933;51.908;7.730;2023-05-16T10:03:27;101291.72;;;23.37;64.92
13709;BME280;54933;51.908;7.730;2023-05-16T10:05:53;101289.00;;;23.37;65.25
13709;BME280;54933;51.908;7.730;2023-05-16T10:08:24;101294.22;;;23.38;65.24
13709;BME280;54933;51.908;7.730;2023-05-16T10:10:52;101296.91;;;23.38;65.44
13709;BME280;54933;51.908;7.730;2023-05-16T10:13:28;101302.34;;;23.38;65.07
13709;BME280;54933;51.908;7.730;2023-05-16T10:15:55;101287.75;;;23.39;65.70
13709;BME280;54933;51.908;7.730;2023-05-16T10:18:23;101287.75;;;23.39;65.40
13709;BME280;54933;51.908;7.730;2023-05-16T10:20:53;101286.06;;;23.38;65.40
13709;BME280;54933;51.908;7.730;2023-05-16T10:23:19;101284.44;;;23.37;65.39
13709;BME280;54933;51.908;7.730;2023-05-16T10:25:47;101291.50;;;23.38;65.04
13709;BME280;54933;51.908;7.730;2023-05-16T10:28:14;101285.25;;;23.38;65.47
13709;BME280;54933;51.908;7.730;2023-05-16T10:30:41;101276.28;;;23.37;65.15
13709;BME280;54933;51.908;7.730;2023-05-16T10:33:10;101282.78;;;23.36;65.39
13709;BME280;54933;51.908;7.730;2023-05-16T10:35:36;101286.53;;;23.35;65.15
13709;BME280;54933;51.908;7.730;2023-05-16T10:38:02;101287.13;;;23.37;65.26
13709;BME280;54933;51.908;7.730;2023-05-16T10:40:29;101286.28;;;23.37;65.25
13709;BME280;54933;51.908;7.730;2023-05-16T10:42:56;101299.03;;;23.36;65.27
13709;BME280;54933;51.908;7.730;2023-05-16T10:45:22;101295.28;;;23.37;65.21
13709;BME280;54933;51.908;7.730;2023-05-16T10:47:58;101289.84;;;23.37;65.31
13709;BME280;54933;51.908;7.730;2023-05-16T10:53:13;101298.59;;;23.39;65.37
13709;BME280;54933;51.908;7.730;2023-05-16T10:55:39;101293.19;;;23.39;65.40
13709;BME280;54933;51.908;7.730;2023-05-16T10:58:04;101293.19;;;23.39;65.49
13709;BME280;54933;51.908;7.730;2023-05-16T11:00:30;101298.59;;;23.39;65.31
13709;BME280;54933;51.908;7.730;2023-05-16T11:03:05;101302.97;;;23.40;65.21
13709;BME280;54933;51.908;7.730;2023-05-16T11:05:30;101301.91;;;23.41;65.37
13709;BME280;54933;51.908;7.730;2023-05-16T11:08:04;101288.34;;;23.41;65.44
13709;BME280;54933;51.908;7.730;2023-05-16T11:10:30;101291.06;;;23.41;65.37
13709;BME280;54933;51.908;7.730;2023-05-16T11:13:01;101286.69;;;23.40;65.52
13709;BME280;54933;51.908;7.730;2023-05-16T11:15:31;101296.47;;;23.41;65.63
13709;BME280;54933;51.908;7.730;2023-05-16T11:18:08;101285.44;;;23.43;65.78
13709;BME280;54933;51.908;7.730;2023-05-16T11:20:36;101292.72;;;23.42;65.61
13709;BME280;54933;51.908;7.730;2023-05-16T11:23:21;101289.81;;;23.44;65.58
13709;BME280;54933;51.908;7.730;2023-05-16T11:25:55;101286.03;;;23.45;65.46
13709;BME280;54933;51.908;7.730;2023-05-16T11:28:23;101279.78;;;23.44;65.25
13709;BME280;54933;51.908;7.730;2023-05-16T11:30:53;101284.16;;;23.45;65.59
13709;BME280;54933;51.908;7.730;2023-05-16T11:33:21;101288.50;;;23.46;65.78
13709;BME280;54933;51.908;7.730;2023-05-16T11:36:06;101286.88;;;23.45;65.76
13709;BME280;54933;51.908;7.730;2023-05-16T11:38:33;101287.72;;;23.46;66.01
13709;BME280;54933;51.908;7.730;2023-05-16T11:41:06;101291.22;;;23.46;65.83
13709;BME280;54933;51.908;7.730;2023-05-16T11:43:42;101293.94;;;23.46;65.84
13709;BME280;54933;51.908;7.730;2023-05-16T11:46:11;101291.00;;;23.48;65.65
13709;BME280;54933;51.908;7.730;2023-05-16T11:48:37;101301.03;;;23.47;65.54
13709;BME280;54933;51.908;7.730;2023-05-16T11:51:02;101295.63;;;23.47;65.67
13709;BME280;54933;51.908;7.730;2023-05-16T11:53:28;101304.78;;;23.46;65.83
13709;BME280;54933;51.908;7.730;2023-05-16T11:55:53;101309.19;;;23.47;65.73
13709;BME280;54933;51.908;7.730;2023-05-16T11:58:19;101298.13;;;23.49;65.66
13709;BME280;54933;51.908;7.730;2023-05-16T12:00:49;101306.69;;;23.46;65.57
13709;BME280;54933;51.908;7.730;2023-05-16T12:03:16;101311.28;;;23.45;65.01
13709;BME280;54933;51.908;7.730;2023-05-16T12:05:52;101317.75;;;23.44;64.90
13709;BME280;54933;51.908;7.730;2023-05-16T12:08:21;101316.09;;;23.43;64.81
13709;BME280;54933;51.908;7.730;2023-05-16T12:10:48;101319.84;;;23.42;65.18
13709;BME280;54933;51.908;7.730;2023-05-16T12:13:15;101317.16;;;23.42;65.11
13709;BME280;54933;51.908;7.730;2023-05-16T12:15:40;101309.00;;;23.42;65.29
13709;BME280;54933;51.908;7.730;2023-05-16T12:18:07;101309.00;;;23.42;65.55
13709;BME280;54933;51.908;7.730;2023-05-16T12:20:33;101315.28;;;23.43;65.62
13709;BME280;54933;51.908;7.730;2023-05-16T12:22:58;101316.09;;;23.43;65.57
13709;BME280;54933;51.908;7.730;2023-05-16T12:25:33;101310.66;;;23.43;65.57
13709;BME280;54933;51.908;7.730;2023-05-16T12:28:06;101313.38;;;23.43;65.88
13709;BME280;54933;51.908;7.730;2023-05-16T12:30:32;101299.81;;;23.43;65.97
13709;BME280;54933;51.908;7.730;2023-05-16T12:33:00;101297.94;;;23.44;65.73
13709;BME280;54933;51.908;7.730;2023-05-16T12:35:30;101295.00;;;23.45;66.07
13709;BME280;54933;51.908;7.730;2023-05-16T12:37:57;101286.88;;;23.45;66.17
13709;BME280;54933;51.908;7.730;2023-05-16T12:40:22;101294.38;;;23.43;65.90
13709;BME280;54933;51.908;7.730;2023-05-16T12:42:55;101283.22;;;22.45;61.52
13709;BME280;54933;51.908;7.730;2023-05-16T12:45:23;101292.22;;;22.83;58.63
13709;BME280;54933;51.908;7.730;2023-05-16T12:47:49;101297.94;;;23.06;59.16
13709;BME280;54933;51.908;7.730;2023-05-16T12:50:15;101295.59;;;23.16;59.79
13709;BME280;54933;51.908;7.730;2023-05-16T12:52:52;101304.53;;;23.23;60.26
13709;BME280;54933;51.908;7.730;2023-05-16T12:55:19;101301.41;;;23.26;60.71